createdAt,value
2019-02-04T00:00:32.625Z,9.95
2019-02-04T00:04:02.848Z,4.52
2019-02-04T00:07:32.972Z,6.14
2019-02-04T00:11:03.076Z,4.69
2019-02-04T00:14:33.161Z,9.65
2019-02-04T00:18:04.042Z,13.39
2019-02-04T00:21:34.186Z,9.06
2019-02-04T00:25:04.359Z,6.61
2019-02-04T00:28:34.513Z,6.45
2019-02-04T00:32:04.636Z,9.18
2019-02-04T00:35:34.810Z,6.24
2019-02-04T00:39:06.313Z,6.26
2019-02-04T00:42:36.338Z,4.2
2019-02-04T00:46:06.771Z,11.46
2019-02-04T00:49:37.034Z,5.51
2019-02-04T00:53:07.168Z,7.64
2019-02-04T00:56:37.291Z,13.82
2019-02-04T01:00:12.215Z,5.12
2019-02-04T01:03:43.516Z,6.72
2019-02-04T01:07:13.632Z,4.79
2019-02-04T01:10:43.776Z,4.59
2019-02-04T01:14:13.859Z,6.96
2019-02-04T01:17:44.032Z,5.11
2019-02-04T01:21:14.136Z,3.48
2019-02-04T01:24:44.297Z,5.54
2019-02-04T01:28:14.422Z,9.36
2019-02-04T01:31:44.616Z,5.66
2019-02-04T01:35:14.870Z,6.58
2019-02-04T01:38:45.453Z,6.25
2019-02-04T01:42:15.598Z,4.51
2019-02-04T01:45:45.870Z,4.92
2019-02-04T01:49:15.954Z,6.44
2019-02-04T01:52:46.232Z,14.56
2019-02-04T01:56:16.271Z,14.1
2019-02-04T01:59:46.306Z,9.35
2019-02-04T02:00:20.827Z,8.5
2019-02-04T02:03:51.949Z,7.95
2019-02-04T02:07:22.433Z,7.9
2019-02-04T02:10:52.746Z,8.03
2019-02-04T02:14:22.851Z,8.74
2019-02-04T02:17:52.986Z,6.39
2019-02-04T02:21:23.107Z,6.3
2019-02-04T02:24:53.220Z,7.54
2019-02-04T02:28:23.315Z,8.88
2019-02-04T02:31:53.348Z,7.92
2019-02-04T02:35:23.486Z,4.46
2019-02-04T02:38:53.564Z,8.7
2019-02-04T02:42:23.738Z,7.86
2019-02-04T02:45:53.833Z,7.54
2019-02-04T02:49:23.966Z,8.44
2019-02-04T02:52:54.104Z,4.09
2019-02-04T02:56:24.222Z,2.94
2019-02-04T02:59:54.236Z,6.55
2019-02-04T03:03:24.329Z,6.91
2019-02-04T03:06:55.503Z,1.96
2019-02-04T03:10:28.288Z,10.09
2019-02-04T03:13:58.313Z,9.9
2019-02-04T03:17:28.454Z,9.33
2019-02-04T03:20:58.648Z,2.9
2019-02-04T03:24:28.779Z,9.44
2019-02-04T03:27:58.855Z,4.81
2019-02-04T03:31:28.959Z,7.29
2019-02-04T03:34:58.952Z,5.8
2019-02-04T03:38:29.165Z,6.81
2019-02-04T03:41:59.269Z,6.06
2019-02-04T03:45:29.422Z,7.09
2019-02-04T03:48:59.725Z,7.16
2019-02-04T03:52:29.884Z,4.34
2019-02-04T03:55:59.942Z,5.35
2019-02-04T03:59:29.983Z,6.33
2019-02-04T04:00:21.037Z,6.24
2019-02-04T04:03:51.183Z,9.12
2019-02-04T04:07:22.244Z,14.15
2019-02-04T04:10:52.368Z,3.35
2019-02-04T04:14:22.501Z,8.75
2019-02-04T04:17:52.944Z,6.36
2019-02-04T04:21:23.298Z,9.15
2019-02-04T04:24:53.382Z,9.6
2019-02-04T04:28:23.415Z,3.71
2019-02-04T04:31:53.450Z,10.21
2019-02-04T04:35:23.607Z,11.99
2019-02-04T04:38:53.566Z,7.31
2019-02-04T04:42:23.669Z,4.31
2019-02-04T04:45:53.822Z,4.69
2019-02-04T04:49:24.066Z,8.22
2019-02-04T04:52:54.200Z,5.6
2019-02-04T04:56:24.444Z,10.91
2019-02-04T04:59:54.527Z,2.84
2019-02-04T05:03:24.651Z,4.51
2019-02-04T05:06:54.829Z,5.75
2019-02-04T05:10:26.008Z,5.01
2019-02-04T05:13:56.132Z,10.34
2019-02-04T05:17:26.175Z,6.71
2019-02-04T05:20:56.558Z,8.44
2019-02-04T05:24:26.622Z,5.81
2019-02-04T05:27:56.725Z,6.65
2019-02-04T05:31:26.888Z,6.34
2019-02-04T05:34:57.624Z,9.51
2019-02-04T05:38:27.807Z,10.04
2019-02-04T05:41:57.927Z,6.14
2019-02-04T05:45:28.073Z,3.83
2019-02-04T05:48:58.108Z,6.31
2019-02-04T05:52:28.230Z,4.49
2019-02-04T05:55:58.255Z,13.18
2019-02-04T05:59:28.322Z,4.26
2019-02-04T06:00:21.729Z,2.73
2019-02-04T06:03:51.792Z,5.9
2019-02-04T06:07:21.905Z,8.77
2019-02-04T06:10:52.929Z,6.24
2019-02-04T06:14:22.972Z,5.85
2019-02-04T06:17:53.016Z,11.41
2019-02-04T06:21:23.170Z,7.74
2019-02-04T06:24:53.322Z,4.7
2019-02-04T06:28:23.496Z,5.85
2019-02-04T06:31:56.180Z,6.61
2019-02-04T06:35:26.313Z,9.54
2019-02-04T06:38:56.258Z,7.38
2019-02-04T06:42:26.490Z,10.64
2019-02-04T06:45:56.585Z,4.7
2019-02-04T06:49:26.758Z,9.55
2019-02-04T06:52:56.892Z,14.4
2019-02-04T06:56:27.045Z,8.66
2019-02-04T06:59:57.179Z,6.03
2019-02-04T07:03:27.353Z,10.88
2019-02-04T07:06:57.487Z,7.08
2019-02-04T07:10:27.670Z,10.81
2019-02-04T07:13:58.723Z,19.31
2019-02-04T07:17:28.827Z,14.38
2019-02-04T07:20:58.902Z,10.29
2019-02-04T07:24:29.146Z,4.66
2019-02-04T07:27:59.275Z,8.19
2019-02-04T07:31:29.364Z,7.49
2019-02-04T07:34:59.378Z,5.06
2019-02-04T07:38:29.909Z,6.41
2019-02-04T07:42:00.150Z,7.7
2019-02-04T07:45:30.230Z,11.46
2019-02-04T07:49:00.289Z,7.26
2019-02-04T07:52:30.524Z,7.52
2019-02-04T07:56:00.645Z,8.04
2019-02-04T07:59:30.830Z,6.26
2019-02-04T08:00:20.201Z,10.26
2019-02-04T08:03:50.342Z,5.08
2019-02-04T08:07:20.509Z,20.88
2019-02-04T08:10:50.612Z,12.24
2019-02-04T08:14:21.016Z,20
2019-02-04T08:17:51.159Z,13.49
2019-02-04T08:21:21.264Z,17.11
2019-02-04T08:24:51.317Z,20.91
2019-02-04T08:28:21.420Z,20.71
2019-02-04T08:31:51.394Z,12.72
2019-02-04T08:35:21.597Z,20.86
2019-02-04T08:38:51.722Z,10.56
2019-02-04T08:42:21.925Z,21.54
2019-02-04T08:45:51.978Z,14.59
2019-02-04T08:49:22.087Z,17.71
2019-02-04T08:52:52.157Z,10.7
2019-02-04T08:56:22.369Z,10.88
2019-02-04T08:59:52.403Z,14.51
2019-02-04T09:03:22.547Z,10.34
2019-02-04T09:06:52.602Z,13.97
2019-02-04T09:10:25.835Z,15.2
2019-02-04T09:13:56.178Z,9.39
2019-02-04T09:17:27.262Z,15.99
2019-02-04T09:20:57.260Z,12.18
2019-02-04T09:24:27.396Z,9.8
2019-02-04T09:27:57.562Z,10.9
2019-02-04T09:31:27.687Z,13.16
2019-02-04T09:34:57.790Z,12.15
2019-02-04T09:38:27.914Z,10.85
2019-02-04T09:41:57.997Z,11.06
2019-02-04T09:45:28.230Z,14.55
2019-02-04T09:48:58.390Z,14.1
2019-02-04T09:52:28.463Z,14.74
2019-02-04T09:55:59.672Z,14.36
2019-02-04T09:59:29.936Z,10.86
2019-02-04T10:00:19.405Z,12.56
2019-02-04T10:03:49.524Z,18.96
2019-02-04T10:07:19.654Z,11.05
2019-02-04T10:10:49.878Z,9.45
2019-02-04T10:14:19.992Z,8.76
2019-02-04T10:17:51.196Z,11.28
2019-02-04T10:21:21.453Z,11.11
2019-02-04T10:24:51.573Z,13.25
2019-02-04T10:28:21.749Z,18.5
2019-02-04T10:31:51.821Z,9.49
2019-02-04T10:35:22.221Z,9.26
2019-02-04T10:38:52.705Z,16.21
2019-02-04T10:42:22.962Z,11.2
2019-02-04T10:45:53.158Z,8.82
2019-02-04T10:49:23.372Z,9.76
2019-02-04T10:52:53.560Z,9.23
2019-02-04T10:56:23.782Z,9.35
2019-02-04T10:59:53.906Z,18.74
2019-02-04T11:03:24.085Z,14.79
2019-02-04T11:06:54.203Z,9.1
2019-02-04T11:10:30.382Z,12.49
2019-02-04T11:14:00.494Z,10.53
2019-02-04T11:17:30.835Z,8.41
2019-02-04T11:21:02.003Z,6.78
2019-02-04T11:24:32.170Z,8.18
2019-02-04T11:28:04.072Z,11.39
2019-02-04T11:31:34.666Z,8.68
2019-02-04T11:35:05.165Z,10.74
2019-02-04T11:38:35.316Z,13
2019-02-04T11:42:05.503Z,17.59
2019-02-04T11:45:35.732Z,12.1
2019-02-04T11:49:05.815Z,12.05
2019-02-04T11:52:35.960Z,9.26
2019-02-04T11:56:06.163Z,7.65
2019-02-04T11:59:36.272Z,9.94
2019-02-04T12:00:19.308Z,10.99
2019-02-04T12:03:49.532Z,13.18
2019-02-04T12:07:19.737Z,7.72
2019-02-04T12:10:53.170Z,10.07
2019-02-04T12:14:23.282Z,15.88
2019-02-04T12:17:53.408Z,20.66
2019-02-04T12:21:24.432Z,6.54
2019-02-04T12:24:54.638Z,10.9
2019-02-04T12:28:24.739Z,6.12
2019-02-04T12:31:54.804Z,7.82
2019-02-04T12:35:25.177Z,7.07
2019-02-04T12:38:55.410Z,10.05
2019-02-04T12:42:25.545Z,10.08
2019-02-04T12:45:55.729Z,7.3
2019-02-04T12:49:25.893Z,8.45
2019-02-04T12:52:55.937Z,8.68
2019-02-04T12:56:26.061Z,5.28
2019-02-04T12:59:56.488Z,8.36
2019-02-04T13:03:26.589Z,7.56
2019-02-04T13:06:56.673Z,7.94
2019-02-04T13:10:26.866Z,9.9
2019-02-04T13:13:56.873Z,7.01
2019-02-04T13:17:27.045Z,7.39
2019-02-04T13:20:57.070Z,9.23
2019-02-04T13:24:28.282Z,14.31
2019-02-04T13:27:58.442Z,8.46
2019-02-04T13:31:28.469Z,8.82
2019-02-04T13:34:58.644Z,11.89
2019-02-04T13:38:28.768Z,7.9
2019-02-04T13:41:58.812Z,11.72
2019-02-04T13:45:29.086Z,11.4
2019-02-04T13:48:59.090Z,11.84
2019-02-04T13:52:29.194Z,9.18
2019-02-04T13:55:59.258Z,3.95
2019-02-04T13:59:29.411Z,4.46
2019-02-04T14:00:17.532Z,16.34
2019-02-04T14:03:48.463Z,7.05
2019-02-04T14:07:21.364Z,8.66
2019-02-04T14:10:51.834Z,8.15
2019-02-04T14:14:22.148Z,8.04
2019-02-04T14:17:52.521Z,8.06
2019-02-04T14:21:22.647Z,10.76
2019-02-04T14:24:52.820Z,8
2019-02-04T14:28:23.064Z,7.9
2019-02-04T14:31:53.198Z,11.55
2019-02-04T14:35:23.411Z,7.9
2019-02-04T14:38:53.455Z,9.45
2019-02-04T14:42:23.539Z,12.76
2019-02-04T14:46:32.774Z,8.35
2019-02-04T14:50:33.318Z,10.36
2019-02-04T14:56:42.856Z,11.5
2019-02-04T15:00:57.310Z,13.05
2019-02-04T15:04:36.152Z,17.74
2019-02-04T15:08:33.290Z,14.95
2019-02-04T15:12:15.162Z,19.1
2019-02-04T15:16:09.306Z,21.5
2019-02-04T15:20:20.502Z,28.26
2019-02-04T15:24:30.264Z,31.5
2019-02-04T15:28:09.268Z,18.14
2019-02-04T15:32:21.673Z,19.15
2019-02-04T15:36:42.631Z,10.62
2019-02-04T15:40:22.661Z,6.66
2019-02-04T15:44:04.195Z,10.36
2019-02-04T15:47:48.030Z,15.09
2019-02-04T15:51:23.763Z,86.11
2019-02-04T15:54:54.156Z,82.42
2019-02-04T15:58:24.511Z,71.75
2019-02-04T16:00:17.862Z,32.78
2019-02-04T16:03:47.977Z,6.81
2019-02-04T16:07:18.030Z,7.15
2019-02-04T16:10:48.133Z,8.29
2019-02-04T16:14:18.217Z,9.74
2019-02-04T16:17:48.350Z,7.7
2019-02-04T16:21:18.814Z,3.71
2019-02-04T16:24:49.068Z,7.74
2019-02-04T16:28:20.248Z,6.46
2019-02-04T16:31:50.378Z,9.12
2019-02-04T16:35:20.649Z,12.8
2019-02-04T16:38:50.838Z,3.64
2019-02-04T16:42:20.996Z,7.38
2019-02-04T16:45:51.179Z,8.74
2019-02-04T16:49:21.253Z,10.22
2019-02-04T16:52:51.376Z,3.17
2019-02-04T16:56:21.380Z,8.46
2019-02-04T16:59:51.494Z,20.83
2019-02-04T17:03:21.529Z,21.14
2019-02-04T17:06:51.646Z,11.14
2019-02-04T17:10:22.304Z,9.77
2019-02-04T17:13:52.481Z,11.36
2019-02-04T17:17:22.522Z,13.01
2019-02-04T17:20:52.607Z,13.99
2019-02-04T17:24:22.839Z,7.2
2019-02-04T17:27:53.203Z,14.86
2019-02-04T17:31:24.416Z,11.82
2019-02-04T17:34:54.500Z,8.99
2019-02-04T17:38:24.474Z,10.56
2019-02-04T17:41:54.607Z,9.29
2019-02-04T17:45:24.549Z,9.31
2019-02-04T17:48:54.684Z,11.29
2019-02-04T17:52:24.767Z,9.81
2019-02-04T17:55:54.924Z,11.89
2019-02-04T17:59:25.033Z,48.91
2019-02-04T18:00:23.376Z,52.89
2019-02-04T18:03:53.510Z,45.56
2019-02-04T18:07:23.614Z,24.77
2019-02-04T18:10:53.750Z,23.71
2019-02-04T18:14:23.841Z,34.35
2019-02-04T18:17:53.991Z,32.61
2019-02-04T18:21:24.097Z,25.29
2019-02-04T18:24:54.181Z,27.91
2019-02-04T18:28:24.324Z,25.86
2019-02-04T18:31:55.431Z,25.85
2019-02-04T18:35:25.692Z,22.26
2019-02-04T18:38:55.775Z,20.31
2019-02-04T18:42:25.838Z,20.4
2019-02-04T18:45:56.072Z,21.11
2019-02-04T18:49:26.606Z,19.46
2019-02-04T18:52:56.849Z,11.7
2019-02-04T18:56:26.942Z,16.41
2019-02-04T18:59:57.016Z,16.86
2019-02-04T19:03:27.179Z,15.71
2019-02-04T19:06:57.423Z,13.5
2019-02-04T19:10:27.546Z,18.46
2019-02-04T19:13:57.690Z,9.78
2019-02-04T19:17:27.797Z,8.74
2019-02-04T19:20:57.957Z,9.44
2019-02-04T19:24:28.021Z,19.06
2019-02-04T19:27:58.084Z,9.68
2019-02-04T19:31:29.327Z,12.03
2019-02-04T19:35:00.392Z,13.78
2019-02-04T19:38:30.875Z,13.9
2019-02-04T19:42:01.128Z,14.71
2019-02-04T19:45:31.281Z,10.74
2019-02-04T19:49:01.415Z,9.41
2019-02-04T19:52:31.539Z,10.25
2019-02-04T19:56:01.912Z,6.94
2019-02-04T19:59:31.996Z,9.38
2019-02-04T20:00:20.594Z,10.04
2019-02-04T20:03:51.162Z,7.62
2019-02-04T20:07:21.244Z,6.59
2019-02-04T20:10:51.407Z,17.11
2019-02-04T20:14:21.487Z,8.64
2019-02-04T20:18:00.305Z,10.1
2019-02-04T20:21:30.498Z,14.91
2019-02-04T20:25:00.632Z,13.41
2019-02-04T20:28:30.605Z,7.66
2019-02-04T20:32:00.849Z,6.41
2019-02-04T20:35:31.862Z,4.83
2019-02-04T20:39:05.016Z,6.24
2019-02-04T20:42:35.199Z,7.83
2019-02-04T20:46:05.465Z,10.04
2019-02-04T20:49:35.586Z,4.89
2019-02-04T20:53:05.769Z,5.44
2019-02-04T20:56:35.806Z,5.24
2019-02-04T21:00:10.199Z,6.93
2019-02-04T21:03:40.516Z,5
2019-02-04T21:07:10.694Z,4.4
2019-02-04T21:10:40.807Z,6.81
2019-02-04T21:14:10.891Z,7.04
2019-02-04T21:17:40.954Z,6.19
2019-02-04T21:21:11.108Z,5.54
2019-02-04T21:24:41.182Z,8.5
2019-02-04T21:28:11.261Z,4.99
2019-02-04T21:31:41.329Z,12.84
2019-02-04T21:35:11.613Z,11.39
2019-02-04T21:38:41.780Z,10
2019-02-04T21:42:12.250Z,9.54
2019-02-04T21:45:42.304Z,14.49
2019-02-04T21:49:12.437Z,11.82
2019-02-04T21:52:42.530Z,14.29
2019-02-04T21:56:12.654Z,10.04
2019-02-04T21:59:42.757Z,12.84
2019-02-04T22:00:20.993Z,10.35
2019-02-04T22:03:51.101Z,9.27
2019-02-04T22:07:21.285Z,22.73
2019-02-04T22:10:51.438Z,7.95
2019-02-04T22:14:21.506Z,9.45
2019-02-04T22:17:51.746Z,16.64
2019-02-04T22:21:21.919Z,18.55
2019-02-04T22:24:51.943Z,30.91
2019-02-04T22:28:22.268Z,23.34
2019-02-04T22:31:52.770Z,20.81
2019-02-04T22:35:23.394Z,9.59
2019-02-04T22:38:54.497Z,12.62
2019-02-04T22:42:24.591Z,7.22
2019-02-04T22:45:55.058Z,13.93
2019-02-04T22:49:25.622Z,17.26
2019-02-04T22:52:55.913Z,16.2
2019-02-04T22:56:25.959Z,12.68
2019-02-04T22:59:56.049Z,8.97
2019-02-04T23:03:26.374Z,10.91
2019-02-04T23:06:56.462Z,15.08
2019-02-04T23:10:26.550Z,11.12
2019-02-04T23:13:56.793Z,11.29
2019-02-04T23:17:26.920Z,6.36
2019-02-04T23:20:57.080Z,36.8
2019-02-04T23:24:27.143Z,11.1
2019-02-04T23:27:57.239Z,9.85
2019-02-04T23:31:27.362Z,15.69
2019-02-04T23:34:57.403Z,10.3
2019-02-04T23:38:27.539Z,11.4
2019-02-04T23:41:58.551Z,12.3
2019-02-04T23:45:28.754Z,15.01
2019-02-04T23:48:59.141Z,15.91
2019-02-04T23:52:29.343Z,13.56
2019-02-04T23:55:59.455Z,13.48
2019-02-04T23:59:29.548Z,10.01
